sensor_id;sensor_type;location;lat;lon;timestamp;temperature;humidity
23079;DHT22;11707;50.830;4.364;2024-02-14T00:00:38;9.70;99.90
23079;DHT22;11707;50.830;4.364;2024-02-14T00:03:09;9.70;99.90
23079;DHT22;11707;50.830;4.364;2024-02-14T00:05:36;9.70;99.90
23079;DHT22;11707;50.830;4.364;2024-02-14T00:08:06;9.80;99.90
23079;DHT22;11707;50.830;4.364;2024-02-14T00:10:35;9.80;99.90
23079;DHT22;11707;50.830;4.364;2024-02-14T00:13:00;9.80;99.90
23079;DHT22;11707;50.830;4.364;2024-02-14T00:15:27;9.80;99.90
23079;DHT22;11707;50.830;4.364;2024-02-14T00:17:53;9.60;99.90
23079;DHT22;11707;50.830;4.364;2024-02-14T00:20:19;9.70;99.90
23079;DHT22;11707;50.830;4.364;2024-02-14T00:22:47;9.70;99.90
23079;DHT22;11707;50.830;4.364;2024-02-14T00:25:13;9.70;99.90
23079;DHT22;11707;50.830;4.364;2024-02-14T00:27:39;9.70;99.90
23079;DHT22;11707;50.830;4.364;2024-02-14T00:30:08;9.70;99.90
23079;DHT22;11707;50.830;4.364;2024-02-14T00:32:35;9.70;99.90
23079;DHT22;11707;50.830;4.364;2024-02-14T00:35:03;9.90;99.90
23079;DHT22;11707;50.830;4.364;2024-02-14T00:37:29;9.90;99.90
23079;DHT22;11707;50.830;4.364;2024-02-14T00:39:58;9.80;99.90
23079;DHT22;11707;50.830;4.364;2024-02-14T00:42:24;9.90;99.90
23079;DHT22;11707;50.830;4.364;2024-02-14T00:44:53;9.90;99.90
23079;DHT22;11707;50.830;4.364;2024-02-14T00:47:18;9.90;99.90
23079;DHT22;11707;50.830;4.364;2024-02-14T00:49:44;9.90;99.90
23079;DHT22;11707;50.830;4.364;2024-02-14T00:52:10;9.90;99.90
23079;DHT22;11707;50.830;4.364;2024-02-14T00:54:38;9.90;99.90
23079;DHT22;11707;50.830;4.364;2024-02-14T00:57:06;10.00;99.90
23079;DHT22;11707;50.830;4.364;2024-02-14T00:59:34;10.00;99.00
23079;DHT22;11707;50.830;4.364;2024-02-14T01:02:02;10.00;99.70
23079;DHT22;11707;50.830;4.364;2024-02-14T01:04:28;10.00;99.50
23079;DHT22;11707;50.830;4.364;2024-02-14T01:06:56;10.10;99.60
23079;DHT22;11707;50.830;4.364;2024-02-14T01:09:22;10.10;97.00
23079;DHT22;11707;50.830;4.364;2024-02-14T01:11:47;10.10;96.80
23079;DHT22;11707;50.830;4.364;2024-02-14T01:14:14;10.00;97.80
23079;DHT22;11707;50.830;4.364;2024-02-14T01:16:44;10.00;99.90
23079;DHT22;11707;50.830;4.364;2024-02-14T01:19:10;9.90;99.90
23079;DHT22;11707;50.830;4.364;2024-02-14T01:21:39;10.00;99.90
23079;DHT22;11707;50.830;4.364;2024-02-14T01:24:07;10.00;99.90
23079;DHT22;11707;50.830;4.364;2024-02-14T01:26:34;9.90;99.90
23079;DHT22;11707;50.830;4.364;2024-02-14T01:29:02;9.90;99.90
23079;DHT22;11707;50.830;4.364;2024-02-14T01:31:28;9.90;99.90
23079;DHT22;11707;50.830;4.364;2024-02-14T01:33:55;9.90;99.90
23079;DHT22;11707;50.830;4.364;2024-02-14T01:36:22;9.90;99.90
23079;DHT22;11707;50.830;4.364;2024-02-14T01:38:48;10.00;99.90
23079;DHT22;11707;50.830;4.364;2024-02-14T01:41:14;9.90;99.90
23079;DHT22;11707;50.830;4.364;2024-02-14T01:43:40;10.00;99.90
23079;DHT22;11707;50.830;4.364;2024-02-14T01:46:08;10.00;99.90
23079;DHT22;11707;50.830;4.364;2024-02-14T01:48:34;10.00;99.90
23079;DHT22;11707;50.830;4.364;2024-02-14T01:51:01;9.90;99.90
23079;DHT22;11707;50.830;4.364;2024-02-14T01:53:28;9.90;99.90
23079;DHT22;11707;50.830;4.364;2024-02-14T01:55:59;10.00;99.90
23079;DHT22;11707;50.830;4.364;2024-02-14T01:58:25;10.00;99.90
23079;DHT22;11707;50.830;4.364;2024-02-14T02:00:52;10.10;99.90
23079;DHT22;11707;50.830;4.364;2024-02-14T02:03:23;10.10;99.90
23079;DHT22;11707;50.830;4.364;2024-02-14T02:05:49;10.10;99.90
23079;DHT22;11707;50.830;4.364;2024-02-14T02:08:15;10.00;99.90
23079;DHT22;11707;50.830;4.364;2024-02-14T02:10:41;10.00;99.90
23079;DHT22;11707;50.830;4.364;2024-02-14T02:13:08;10.00;99.90
23079;DHT22;11707;50.830;4.364;2024-02-14T02:15:34;10.10;99.90
23079;DHT22;11707;50.830;4.364;2024-02-14T02:18:03;10.00;99.90
23079;DHT22;11707;50.830;4.364;2024-02-14T02:20:31;9.90;99.90
23079;DHT22;11707;50.830;4.364;2024-02-14T02:22:59;9.90;99.90
23079;DHT22;11707;50.830;4.364;2024-02-14T02:25:25;9.90;99.90
23079;DHT22;11707;50.830;4.364;2024-02-14T02:27:55;10.00;99.90
23079;DHT22;11707;50.830;4.364;2024-02-14T02:30:23;10.10;99.90
23079;DHT22;11707;50.830;4.364;2024-02-14T02:32:49;10.10;99.90
23079;DHT22;11707;50.830;4.364;2024-02-14T02:35:17;10.10;99.90
23079;DHT22;11707;50.830;4.364;2024-02-14T02:37:44;10.10;99.90
23079;DHT22;11707;50.830;4.364;2024-02-14T02:40:11;10.10;99.90
23079;DHT22;11707;50.830;4.364;2024-02-14T02:42:38;10.10;99.90
23079;DHT22;11707;50.830;4.364;2024-02-14T02:45:04;10.20;99.90
23079;DHT22;11707;50.830;4.364;2024-02-14T02:47:32;10.20;99.90
23079;DHT22;11707;50.830;4.364;2024-02-14T02:49:57;10.20;99.90
23079;DHT22;11707;50.830;4.364;2024-02-14T02:52:25;10.30;99.90
23079;DHT22;11707;50.830;4.364;2024-02-14T02:54:51;10.20;99.90
23079;DHT22;11707;50.830;4.364;2024-02-14T02:57:19;10.20;99.90
23079;DHT22;11707;50.830;4.364;2024-02-14T02:59:45;10.30;99.90
23079;DHT22;11707;50.830;4.364;2024-02-14T03:02:13;10.30;99.90
23079;DHT22;11707;50.830;4.364;2024-02-14T03:04:39;10.40;99.90
23079;DHT22;11707;50.830;4.364;2024-02-14T03:07:05;10.40;99.90
23079;DHT22;11707;50.830;4.364;2024-02-14T03:09:34;10.50;99.90
23079;DHT22;11707;50.830;4.364;2024-02-14T03:12:01;10.50;99.90
23079;DHT22;11707;50.830;4.364;2024-02-14T03:14:29;10.50;99.90
23079;DHT22;11707;50.830;4.364;2024-02-14T03:17:01;10.60;99.90
23079;DHT22;11707;50.830;4.364;2024-02-14T03:19:28;10.60;99.90
23079;DHT22;11707;50.830;4.364;2024-02-14T03:21:54;10.50;99.90
23079;DHT22;11707;50.830;4.364;2024-02-14T03:24:20;10.50;99.90
23079;DHT22;11707;50.830;4.364;2024-02-14T03:26:46;10.50;99.90
23079;DHT22;11707;50.830;4.364;2024-02-14T03:29:12;10.50;99.90
23079;DHT22;11707;50.830;4.364;2024-02-14T03:31:42;10.40;99.90
23079;DHT22;11707;50.830;4.364;2024-02-14T03:34:09;10.40;99.90
23079;DHT22;11707;50.830;4.364;2024-02-14T03:36:37;10.50;99.90
23079;DHT22;11707;50.830;4.364;2024-02-14T03:39:03;10.50;99.90
23079;DHT22;11707;50.830;4.364;2024-02-14T03:41:31;10.50;99.90
23079;DHT22;11707;50.830;4.364;2024-02-14T03:43:59;10.60;99.90
23079;DHT22;11707;50.830;4.364;2024-02-14T03:46:29;10.60;99.90
23079;DHT22;11707;50.830;4.364;2024-02-14T03:48:55;10.40;99.90
23079;DHT22;11707;50.830;4.364;2024-02-14T03:51:23;10.50;99.90
23079;DHT22;11707;50.830;4.364;2024-02-14T03:53:49;10.40;99.90
23079;DHT22;11707;50.830;4.364;2024-02-14T03:56:17;10.40;99.90
23079;DHT22;11707;50.830;4.364;2024-02-14T03:58:43;10.50;99.90
23079;DHT22;11707;50.830;4.364;2024-02-14T04:01:09;10.40;99.90
23079;DHT22;11707;50.830;4.364;2024-02-14T04:03:37;10.50;99.90
23079;DHT22;11707;50.830;4.364;2024-02-14T04:06:02;10.40;99.90
23079;DHT22;11707;50.830;4.364;2024-02-14T04:08:28;10.40;99.90
23079;DHT22;11707;50.830;4.364;2024-02-14T04:10:55;10.40;99.90
23079;DHT22;11707;50.830;4.364;2024-02-14T04:13:21;10.40;99.90
23079;DHT22;11707;50.830;4.364;2024-02-14T04:15:47;10.40;99.90
23079;DHT22;11707;50.830;4.364;2024-02-14T04:18:13;10.40;99.90
23079;DHT22;11707;50.830;4.364;2024-02-14T04:20:40;10.50;99.90
23079;DHT22;11707;50.830;4.364;2024-02-14T04:23:06;10.40;99.90
23079;DHT22;11707;50.830;4.364;2024-02-14T04:25:35;10.40;99.90
23079;DHT22;11707;50.830;4.364;2024-02-14T04:28:03;10.40;99.90
23079;DHT22;11707;50.830;4.364;2024-02-14T04:30:28;10.50;99.90
23079;DHT22;11707;50.830;4.364;2024-02-14T04:32:54;10.50;99.90
23079;DHT22;11707;50.830;4.364;2024-02-14T04:35:20;10.50;99.90
23079;DHT22;11707;50.830;4.364;2024-02-14T04:37:46;10.50;99.90
23079;DHT22;11707;50.830;4.364;2024-02-14T04:40:13;10.50;99.90
23079;DHT22;11707;50.830;4.364;2024-02-14T04:42:40;10.50;99.90
23079;DHT22;11707;50.830;4.364;2024-02-14T04:45:09;10.60;99.90
23079;DHT22;11707;50.830;4.364;2024-02-14T04:47:36;10.60;99.90
23079;DHT22;11707;50.830;4.364;2024-02-14T04:50:02;10.50;99.90
23079;DHT22;11707;50.830;4.364;2024-02-14T04:52:30;10.50;99.90
23079;DHT22;11707;50.830;4.364;2024-02-14T04:54:56;10.40;99.90
23079;DHT22;11707;50.830;4.364;2024-02-14T04:57:22;10.50;99.90
23079;DHT22;11707;50.830;4.364;2024-02-14T04:59:48;10.50;99.90
23079;DHT22;11707;50.830;4.364;2024-02-14T05:02:13;10.60;99.90
23079;DHT22;11707;50.830;4.364;2024-02-14T05:04:39;10.60;99.90
23079;DHT22;11707;50.830;4.364;2024-02-14T05:07:07;10.60;99.90
23079;DHT22;11707;50.830;4.364;2024-02-14T05:09:33;10.60;99.90
23079;DHT22;11707;50.830;4.364;2024-02-14T05:12:01;10.60;99.90
23079;DHT22;11707;50.830;4.364;2024-02-14T05:14:29;10.70;99.90
23079;DHT22;11707;50.830;4.364;2024-02-14T05:17:02;10.70;99.90
23079;DHT22;11707;50.830;4.364;2024-02-14T05:19:28;10.80;99.90
23079;DHT22;11707;50.830;4.364;2024-02-14T05:21:55;10.80;99.90
23079;DHT22;11707;50.830;4.364;2024-02-14T05:24:20;10.80;99.90
23079;DHT22;11707;50.830;4.364;2024-02-14T05:26:49;10.80;99.90
23079;DHT22;11707;50.830;4.364;2024-02-14T05:29:15;10.70;99.90
23079;DHT22;11707;50.830;4.364;2024-02-14T05:31:45;10.80;99.90
23079;DHT22;11707;50.830;4.364;2024-02-14T05:34:14;10.80;99.90
23079;DHT22;11707;50.830;4.364;2024-02-14T05:36:42;10.90;99.90
23079;DHT22;11707;50.830;4.364;2024-02-14T05:39:08;10.90;99.90
23079;DHT22;11707;50.830;4.364;2024-02-14T05:41:34;10.80;99.90
23079;DHT22;11707;50.830;4.364;2024-02-14T05:44:00;10.90;99.90
23079;DHT22;11707;50.830;4.364;2024-02-14T05:46:26;10.90;99.90
23079;DHT22;11707;50.830;4.364;2024-02-14T05:48:51;10.90;99.90
23079;DHT22;11707;50.830;4.364;2024-02-14T05:51:20;11.00;99.90
23079;DHT22;11707;50.830;4.364;2024-02-14T05:53:48;10.90;99.90
23079;DHT22;11707;50.830;4.364;2024-02-14T05:56:14;10.90;99.90
23079;DHT22;11707;50.830;4.364;2024-02-14T05:58:40;10.70;99.90
23079;DHT22;11707;50.830;4.364;2024-02-14T06:01:09;10.70;99.90
23079;DHT22;11707;50.830;4.364;2024-02-14T06:03:35;10.70;99.90
23079;DHT22;11707;50.830;4.364;2024-02-14T06:06:01;10.70;99.90
23079;DHT22;11707;50.830;4.364;2024-02-14T06:08:29;10.80;99.90
23079;DHT22;11707;50.830;4.364;2024-02-14T06:10:54;10.90;99.90
23079;DHT22;11707;50.830;4.364;2024-02-14T06:13:22;10.80;99.90
23079;DHT22;11707;50.830;4.364;2024-02-14T06:15:48;10.90;99.90
23079;DHT22;11707;50.830;4.364;2024-02-14T06:18:13;11.00;99.90
23079;DHT22;11707;50.830;4.364;2024-02-14T06:20:41;11.10;99.90
23079;DHT22;11707;50.830;4.364;2024-02-14T06:23:07;11.20;99.90
23079;DHT22;11707;50.830;4.364;2024-02-14T06:25:33;11.20;99.90
23079;DHT22;11707;50.830;4.364;2024-02-14T06:27:59;11.00;99.90
23079;DHT22;11707;50.830;4.364;2024-02-14T06:30:27;11.10;99.90
23079;DHT22;11707;50.830;4.364;2024-02-14T06:32:53;11.10;99.90
23079;DHT22;11707;50.830;4.364;2024-02-14T06:35:18;11.10;99.90
23079;DHT22;11707;50.830;4.364;2024-02-14T06:37:48;11.10;99.90
23079;DHT22;11707;50.830;4.364;2024-02-14T06:40:14;11.00;99.90
23079;DHT22;11707;50.830;4.364;2024-02-14T06:42:40;11.00;99.90
23079;DHT22;11707;50.830;4.364;2024-02-14T06:45:06;11.00;99.90
23079;DHT22;11707;50.830;4.364;2024-02-14T06:47:32;11.00;99.90
23079;DHT22;11707;50.830;4.364;2024-02-14T06:49:57;11.10;99.90
23079;DHT22;11707;50.830;4.364;2024-02-14T06:52:26;11.00;99.90
23079;DHT22;11707;50.830;4.364;2024-02-14T06:54:52;10.90;99.90
23079;DHT22;11707;50.830;4.364;2024-02-14T06:57:17;11.00;99.90
23079;DHT22;11707;50.830;4.364;2024-02-14T06:59:43;11.00;99.90
23079;DHT22;11707;50.830;4.364;2024-02-14T07:02:09;11.00;99.90
23079;DHT22;11707;50.830;4.364;2024-02-14T07:04:37;11.00;99.90
23079;DHT22;11707;50.830;4.364;2024-02-14T07:07:04;11.00;99.90
23079;DHT22;11707;50.830;4.364;2024-02-14T07:09:30;11.10;99.90
23079;DHT22;11707;50.830;4.364;2024-02-14T07:11:56;11.10;99.90
23079;DHT22;11707;50.830;4.364;2024-02-14T07:14:23;11.00;99.90
23079;DHT22;11707;50.830;4.364;2024-02-14T07:16:49;11.10;99.90
23079;DHT22;11707;50.830;4.364;2024-02-14T07:19:15;11.20;99.90
23079;DHT22;11707;50.830;4.364;2024-02-14T07:21:43;11.30;99.90
23079;DHT22;11707;50.830;4.364;2024-02-14T07:24:10;11.40;99.90
23079;DHT22;11707;50.830;4.364;2024-02-14T07:26:36;11.30;99.90
23079;DHT22;11707;50.830;4.364;2024-02-14T07:29:02;11.40;99.90
23079;DHT22;11707;50.830;4.364;2024-02-14T07:31:32;11.30;99.90
23079;DHT22;11707;50.830;4.364;2024-02-14T07:34:02;11.20;99.90
23079;DHT22;11707;50.830;4.364;2024-02-14T07:36:29;11.20;99.90
23079;DHT22;11707;50.830;4.364;2024-02-14T07:38:55;11.30;99.90
23079;DHT22;11707;50.830;4.364;2024-02-14T07:41:20;11.30;99.90
23079;DHT22;11707;50.830;4.364;2024-02-14T07:43:46;11.30;99.90
23079;DHT22;11707;50.830;4.364;2024-02-14T07:46:19;11.20;99.90
23079;DHT22;11707;50.830;4.364;2024-02-14T07:48:45;11.10;99.90
23079;DHT22;11707;50.830;4.364;2024-02-14T07:51:18;11.20;99.90
23079;DHT22;11707;50.830;4.364;2024-02-14T07:53:44;11.10;99.90
23079;DHT22;11707;50.830;4.364;2024-02-14T07:56:10;11.20;99.90
23079;DHT22;11707;50.830;4.364;2024-02-14T07:58:36;11.30;99.90
23079;DHT22;11707;50.830;4.364;2024-02-14T08:01:04;11.40;99.90
23079;DHT22;11707;50.830;4.364;2024-02-14T08:03:30;11.40;99.90
23079;DHT22;11707;50.830;4.364;2024-02-14T08:05:58;11.40;99.90
23079;DHT22;11707;50.830;4.364;2024-02-14T08:08:26;11.40;99.90
23079;DHT22;11707;50.830;4.364;2024-02-14T08:10:53;11.40;99.90
23079;DHT22;11707;50.830;4.364;2024-02-14T08:13:18;11.30;99.90
23079;DHT22;11707;50.830;4.364;2024-02-14T08:15:44;11.40;99.90
23079;DHT22;11707;50.830;4.364;2024-02-14T08:18:12;11.50;99.90
23079;DHT22;11707;50.830;4.364;2024-02-14T08:20:38;11.30;99.90
23079;DHT22;11707;50.830;4.364;2024-02-14T08:23:03;11.30;99.90
23079;DHT22;11707;50.830;4.364;2024-02-14T08:25:32;11.40;99.90
23079;DHT22;11707;50.830;4.364;2024-02-14T08:27:57;11.30;99.90
23079;DHT22;11707;50.830;4.364;2024-02-14T08:30:23;11.30;99.90
23079;DHT22;11707;50.830;4.364;2024-02-14T08:32:49;11.20;99.90
23079;DHT22;11707;50.830;4.364;2024-02-14T08:35:14;11.30;99.90
23079;DHT22;11707;50.830;4.364;2024-02-14T08:37:40;11.30;99.90
23079;DHT22;11707;50.830;4.364;2024-02-14T08:40:07;11.20;99.90
23079;DHT22;11707;50.830;4.364;2024-02-14T08:42:33;11.30;99.90
23079;DHT22;11707;50.830;4.364;2024-02-14T08:45:02;11.30;99.90
23079;DHT22;11707;50.830;4.364;2024-02-14T08:47:31;11.30;99.90
23079;DHT22;11707;50.830;4.364;2024-02-14T08:49:56;11.40;99.90
23079;DHT22;11707;50.830;4.364;2024-02-14T08:52:22;11.50;99.90
23079;DHT22;11707;50.830;4.364;2024-02-14T08:54:48;11.60;99.90
23079;DHT22;11707;50.830;4.364;2024-02-14T08:57:13;11.60;99.90
23079;DHT22;11707;50.830;4.364;2024-02-14T08:59:39;11.50;99.90
23079;DHT22;11707;50.830;4.364;2024-02-14T09:02:07;11.40;99.90
23079;DHT22;11707;50.830;4.364;2024-02-14T09:04:35;11.50;99.90
23079;DHT22;11707;50.830;4.364;2024-02-14T09:07:01;11.60;99.90
23079;DHT22;11707;50.830;4.364;2024-02-14T09:09:27;11.70;99.90
23079;DHT22;11707;50.830;4.364;2024-02-14T09:11:57;11.80;99.90
23079;DHT22;11707;50.830;4.364;2024-02-14T09:14:22;11.80;99.90
23079;DHT22;11707;50.830;4.364;2024-02-14T09:16:48;11.90;99.90
23079;DHT22;11707;50.830;4.364;2024-02-14T09:19:14;12.00;99.90
23079;DHT22;11707;50.830;4.364;2024-02-14T09:21:40;12.10;99.90
23079;DHT22;11707;50.830;4.364;2024-02-14T09:24:05;12.10;99.90
23079;DHT22;11707;50.830;4.364;2024-02-14T09:26:32;12.10;99.90
23079;DHT22;11707;50.830;4.364;2024-02-14T09:28:57;12.10;99.90
23079;DHT22;11707;50.830;4.364;2024-02-14T09:31:25;12.20;99.90
23079;DHT22;11707;50.830;4.364;2024-02-14T09:33:51;12.20;99.90
23079;DHT22;11707;50.830;4.364;2024-02-14T09:36:24;12.10;99.90
23079;DHT22;11707;50.830;4.364;2024-02-14T09:38:51;12.10;99.90
23079;DHT22;11707;50.830;4.364;2024-02-14T09:41:30;12.10;99.90
23079;DHT22;11707;50.830;4.364;2024-02-14T09:43:58;12.00;99.90
23079;DHT22;11707;50.830;4.364;2024-02-14T09:46:26;12.00;99.90
23079;DHT22;11707;50.830;4.364;2024-02-14T09:48:52;12.00;99.90
23079;DHT22;11707;50.830;4.364;2024-02-14T09:51:21;12.10;99.90
23079;DHT22;11707;50.830;4.364;2024-02-14T09:53:50;12.10;99.90
23079;DHT22;11707;50.830;4.364;2024-02-14T09:56:16;12.10;99.90
23079;DHT22;11707;50.830;4.364;2024-02-14T09:58:46;12.00;99.90
23079;DHT22;11707;50.830;4.364;2024-02-14T10:01:18;12.00;99.90
23079;DHT22;11707;50.830;4.364;2024-02-14T10:03:53;12.00;99.90
23079;DHT22;11707;50.830;4.364;2024-02-14T10:06:19;12.00;99.90
23079;DHT22;11707;50.830;4.364;2024-02-14T10:08:47;12.00;99.90
23079;DHT22;11707;50.830;4.364;2024-02-14T10:11:14;11.90;99.90
23079;DHT22;11707;50.830;4.364;2024-02-14T10:13:46;11.90;99.90
23079;DHT22;11707;50.830;4.364;2024-02-14T10:16:14;11.90;99.90
23079;DHT22;11707;50.830;4.364;2024-02-14T10:18:40;11.90;99.90
23079;DHT22;11707;50.830;4.364;2024-02-14T10:21:06;11.90;99.90
23079;DHT22;11707;50.830;4.364;2024-02-14T10:23:32;11.90;99.90
23079;DHT22;11707;50.830;4.364;2024-02-14T10:25:58;12.00;99.90
23079;DHT22;11707;50.830;4.364;2024-02-14T10:28:24;12.00;99.90
23079;DHT22;11707;50.830;4.364;2024-02-14T10:30:54;12.10;99.90
23079;DHT22;11707;50.830;4.364;2024-02-14T10:33:20;12.00;99.90
23079;DHT22;11707;50.830;4.364;2024-02-14T10:35:47;12.00;99.90
23079;DHT22;11707;50.830;4.364;2024-02-14T10:38:16;12.00;99.90
23079;DHT22;11707;50.830;4.364;2024-02-14T10:40:44;12.00;99.90
23079;DHT22;11707;50.830;4.364;2024-02-14T10:43:12;12.00;99.90
23079;DHT22;11707;50.830;4.364;2024-02-14T10:45:38;12.00;99.90
23079;DHT22;11707;50.830;4.364;2024-02-14T10:48:05;11.80;99.90
23079;DHT22;11707;50.830;4.364;2024-02-14T10:50:33;11.90;99.90
23079;DHT22;11707;50.830;4.364;2024-02-14T10:53:04;12.00;99.90
23079;DHT22;11707;50.830;4.364;2024-02-14T10:55:30;12.10;99.90
23079;DHT22;11707;50.830;4.364;2024-02-14T10:57:57;12.00;99.90
23079;DHT22;11707;50.830;4.364;2024-02-14T11:00:26;12.00;99.90
23079;DHT22;11707;50.830;4.364;2024-02-14T11:02:53;12.10;99.90
23079;DHT22;11707;50.830;4.364;2024-02-14T11:05:19;12.10;99.90
23079;DHT22;11707;50.830;4.364;2024-02-14T11:07:49;12.10;99.90
23079;DHT22;11707;50.830;4.364;2024-02-14T11:10:20;12.10;99.90
23079;DHT22;11707;50.830;4.364;2024-02-14T11:12:47;12.20;99.90
23079;DHT22;11707;50.830;4.364;2024-02-14T11:15:22;12.20;99.90
23079;DHT22;11707;50.830;4.364;2024-02-14T11:17:49;12.30;99.90
23079;DHT22;11707;50.830;4.364;2024-02-14T11:20:20;12.20;99.90
23079;DHT22;11707;50.830;4.364;2024-02-14T11:22:54;12.30;99.90
23079;DHT22;11707;50.830;4.364;2024-02-14T11:25:39;12.30;99.90
23079;DHT22;11707;50.830;4.364;2024-02-14T11:28:15;12.30;99.90
23079;DHT22;11707;50.830;4.364;2024-02-14T11:30:42;12.30;99.90
23079;DHT22;11707;50.830;4.364;2024-02-14T11:33:22;12.40;99.90
23079;DHT22;11707;50.830;4.364;2024-02-14T11:35:53;12.20;99.90
23079;DHT22;11707;50.830;4.364;2024-02-14T11:38:30;12.20;99.90
23079;DHT22;11707;50.830;4.364;2024-02-14T11:40:57;12.30;99.90
23079;DHT22;11707;50.830;4.364;2024-02-14T11:43:22;12.30;99.90
23079;DHT22;11707;50.830;4.364;2024-02-14T11:45:49;12.30;99.90
23079;DHT22;11707;50.830;4.364;2024-02-14T11:48:18;12.40;99.90
23079;DHT22;11707;50.830;4.364;2024-02-14T11:50:47;12.40;99.90
23079;DHT22;11707;50.830;4.364;2024-02-14T11:53:14;12.30;99.90
23079;DHT22;11707;50.830;4.364;2024-02-14T11:55:46;12.30;99.90
23079;DHT22;11707;50.830;4.364;2024-02-14T11:58:15;12.40;99.90
23079;DHT22;11707;50.830;4.364;2024-02-14T12:00:43;12.40;99.90
23079;DHT22;11707;50.830;4.364;2024-02-14T12:03:15;12.40;99.90
23079;DHT22;11707;50.830;4.364;2024-02-14T12:05:42;12.40;99.90
23079;DHT22;11707;50.830;4.364;2024-02-14T12:08:09;12.60;99.90
23079;DHT22;11707;50.830;4.364;2024-02-14T12:10:36;12.50;99.90
23079;DHT22;11707;50.830;4.364;2024-02-14T12:13:11;12.50;99.90
23079;DHT22;11707;50.830;4.364;2024-02-14T12:15:45;12.60;99.90
23079;DHT22;11707;50.830;4.364;2024-02-14T12:18:11;12.60;99.90
23079;DHT22;11707;50.830;4.364;2024-02-14T12:20:41;12.60;99.90
23079;DHT22;11707;50.830;4.364;2024-02-14T12:23:13;12.60;99.90
23079;DHT22;11707;50.830;4.364;2024-02-14T12:25:39;12.60;99.90
23079;DHT22;11707;50.830;4.364;2024-02-14T12:28:05;12.70;99.90
23079;DHT22;11707;50.830;4.364;2024-02-14T12:30:51;12.70;99.90
23079;DHT22;11707;50.830;4.364;2024-02-14T12:33:27;12.70;99.90
23079;DHT22;11707;50.830;4.364;2024-02-14T12:35:57;12.60;99.90
23079;DHT22;11707;50.830;4.364;2024-02-14T12:38:24;12.70;99.90
23079;DHT22;11707;50.830;4.364;2024-02-14T12:40:50;12.70;99.90
23079;DHT22;11707;50.830;4.364;2024-02-14T12:43:19;12.80;99.90
23079;DHT22;11707;50.830;4.364;2024-02-14T12:45:45;12.90;99.90
23079;DHT22;11707;50.830;4.364;2024-02-14T12:48:14;12.90;99.90
23079;DHT22;11707;50.830;4.364;2024-02-14T12:50:47;13.00;99.90
23079;DHT22;11707;50.830;4.364;2024-02-14T12:53:15;13.00;99.90
23079;DHT22;11707;50.830;4.364;2024-02-14T12:55:41;13.00;99.90
23079;DHT22;11707;50.830;4.364;2024-02-14T12:58:09;13.00;99.90
23079;DHT22;11707;50.830;4.364;2024-02-14T13:00:35;13.00;99.90
23079;DHT22;11707;50.830;4.364;2024-02-14T13:03:01;13.00;99.90
23079;DHT22;11707;50.830;4.364;2024-02-14T13:05:27;13.10;99.90
23079;DHT22;11707;50.830;4.364;2024-02-14T13:07:53;13.10;99.90
23079;DHT22;11707;50.830;4.364;2024-02-14T13:10:18;13.10;99.90
23079;DHT22;11707;50.830;4.364;2024-02-14T13:12:44;13.10;99.90
23079;DHT22;11707;50.830;4.364;2024-02-14T13:15:11;13.00;99.90
23079;DHT22;11707;50.830;4.364;2024-02-14T13:17:37;12.90;99.90
23079;DHT22;11707;50.830;4.364;2024-02-14T13:20:05;12.80;99.90
23079;DHT22;11707;50.830;4.364;2024-02-14T13:22:31;12.90;99.90
23079;DHT22;11707;50.830;4.364;2024-02-14T13:24:58;12.80;99.90
23079;DHT22;11707;50.830;4.364;2024-02-14T13:27:28;12.80;99.90
23079;DHT22;11707;50.830;4.364;2024-02-14T13:29:54;12.80;99.90
23079;DHT22;11707;50.830;4.364;2024-02-14T13:32:20;12.90;99.90
23079;DHT22;11707;50.830;4.364;2024-02-14T13:34:48;12.80;99.90
23079;DHT22;11707;50.830;4.364;2024-02-14T13:37:14;12.90;99.90
23079;DHT22;11707;50.830;4.364;2024-02-14T13:39:41;13.00;99.90
23079;DHT22;11707;50.830;4.364;2024-02-14T13:42:06;12.90;99.90
23079;DHT22;11707;50.830;4.364;2024-02-14T13:44:33;12.90;99.90
23079;DHT22;11707;50.830;4.364;2024-02-14T13:46:59;12.90;99.90
23079;DHT22;11707;50.830;4.364;2024-02-14T13:49:25;13.00;99.90
23079;DHT22;11707;50.830;4.364;2024-02-14T13:51:53;12.80;99.90
23079;DHT22;11707;50.830;4.364;2024-02-14T13:54:19;12.80;99.90
23079;DHT22;11707;50.830;4.364;2024-02-14T13:56:45;12.80;99.90
23079;DHT22;11707;50.830;4.364;2024-02-14T13:59:14;12.80;99.90
23079;DHT22;11707;50.830;4.364;2024-02-14T14:01:40;12.80;99.90
23079;DHT22;11707;50.830;4.364;2024-02-14T14:04:06;12.80;99.90
23079;DHT22;11707;50.830;4.364;2024-02-14T14:06:34;12.70;99.90
23079;DHT22;11707;50.830;4.364;2024-02-14T14:09:00;12.70;99.90
23079;DHT22;11707;50.830;4.364;2024-02-14T14:11:28;12.80;99.90
23079;DHT22;11707;50.830;4.364;2024-02-14T14:13:54;12.70;99.90
23079;DHT22;11707;50.830;4.364;2024-02-14T14:16:19;12.70;99.90
23079;DHT22;11707;50.830;4.364;2024-02-14T14:18:50;12.80;99.90
23079;DHT22;11707;50.830;4.364;2024-02-14T14:21:16;12.90;99.90
23079;DHT22;11707;50.830;4.364;2024-02-14T14:23:42;12.80;99.90
23079;DHT22;11707;50.830;4.364;2024-02-14T14:26:08;12.90;99.90
23079;DHT22;11707;50.830;4.364;2024-02-14T14:28:36;12.90;99.90
23079;DHT22;11707;50.830;4.364;2024-02-14T14:31:02;12.90;99.90
23079;DHT22;11707;50.830;4.364;2024-02-14T14:33:29;12.90;99.90
23079;DHT22;11707;50.830;4.364;2024-02-14T14:35:55;12.90;99.90
23079;DHT22;11707;50.830;4.364;2024-02-14T14:38:21;12.90;99.90
23079;DHT22;11707;50.830;4.364;2024-02-14T14:40:47;12.90;99.90
23079;DHT22;11707;50.830;4.364;2024-02-14T14:43:14;12.90;99.90
23079;DHT22;11707;50.830;4.364;2024-02-14T14:45:42;12.90;99.90
23079;DHT22;11707;50.830;4.364;2024-02-14T14:48:08;13.00;99.90
23079;DHT22;11707;50.830;4.364;2024-02-14T14:50:35;13.00;99.90
23079;DHT22;11707;50.830;4.364;2024-02-14T14:53:01;13.00;99.90
23079;DHT22;11707;50.830;4.364;2024-02-14T14:55:56;13.10;99.90
23079;DHT22;11707;50.830;4.364;2024-02-14T14:58:22;13.00;99.90
23079;DHT22;11707;50.830;4.364;2024-02-14T15:00:52;13.10;99.90
23079;DHT22;11707;50.830;4.364;2024-02-14T15:03:20;13.10;99.90
23079;DHT22;11707;50.830;4.364;2024-02-14T15:05:46;13.10;99.90
23079;DHT22;11707;50.830;4.364;2024-02-14T15:08:16;13.20;99.90
23079;DHT22;11707;50.830;4.364;2024-02-14T15:10:44;13.20;99.90
23079;DHT22;11707;50.830;4.364;2024-02-14T15:13:09;13.20;99.90
23079;DHT22;11707;50.830;4.364;2024-02-14T15:15:38;13.20;99.90
23079;DHT22;11707;50.830;4.364;2024-02-14T15:18:05;13.20;99.90
23079;DHT22;11707;50.830;4.364;2024-02-14T15:20:30;13.20;99.90
23079;DHT22;11707;50.830;4.364;2024-02-14T15:22:56;13.20;99.90
23079;DHT22;11707;50.830;4.364;2024-02-14T15:25:22;13.30;99.90
23079;DHT22;11707;50.830;4.364;2024-02-14T15:27:51;13.30;99.90
23079;DHT22;11707;50.830;4.364;2024-02-14T15:30:26;13.20;99.90
23079;DHT22;11707;50.830;4.364;2024-02-14T15:33:13;13.30;99.90